sensor_id;sensor_type;location;lat;lon;timestamp;temperature;humidity
67759;SHT31;54562;47.620;18.786;2022-09-09T00:00:53;17.48;83.78
67759;SHT31;54562;47.620;18.786;2022-09-09T00:04:14;17.47;83.81
67759;SHT31;54562;47.620;18.786;2022-09-09T00:07:34;17.45;83.88
67759;SHT31;54562;47.620;18.786;2022-09-09T00:10:53;17.43;83.80
67759;SHT31;54562;47.620;18.786;2022-09-09T00:14:10;17.41;83.93
67759;SHT31;54562;47.620;18.786;2022-09-09T00:17:33;17.37;84.02
67759;SHT31;54562;47.620;18.786;2022-09-09T00:20:49;17.35;84.09
67759;SHT31;54562;47.620;18.786;2022-09-09T00:24:10;17.33;84.18
67759;SHT31;54562;47.620;18.786;2022-09-09T00:27:31;17.32;84.11
67759;SHT31;54562;47.620;18.786;2022-09-09T00:30:52;17.28;84.15
67759;SHT31;54562;47.620;18.786;2022-09-09T00:34:09;17.26;84.14
67759;SHT31;54562;47.620;18.786;2022-09-09T00:37:25;17.24;84.21
67759;SHT31;54562;47.620;18.786;2022-09-09T00:40:44;17.21;84.25
67759;SHT31;54562;47.620;18.786;2022-09-09T00:43:59;17.20;84.38
67759;SHT31;54562;47.620;18.786;2022-09-09T00:50:56;17.19;84.50
67759;SHT31;54562;47.620;18.786;2022-09-09T00:54:21;17.19;84.50
67759;SHT31;54562;47.620;18.786;2022-09-09T00:57:44;17.18;84.53
67759;SHT31;54562;47.620;18.786;2022-09-09T01:00:57;17.16;84.56
67759;SHT31;54562;47.620;18.786;2022-09-09T01:04:12;17.14;84.63
67759;SHT31;54562;47.620;18.786;2022-09-09T01:07:31;17.10;84.72
67759;SHT31;54562;47.620;18.786;2022-09-09T01:10:41;17.07;84.80
67759;SHT31;54562;47.620;18.786;2022-09-09T01:13:58;17.04;84.88
67759;SHT31;54562;47.620;18.786;2022-09-09T01:17:17;17.01;84.97
67759;SHT31;54562;47.620;18.786;2022-09-09T01:20:29;16.99;85.01
67759;SHT31;54562;47.620;18.786;2022-09-09T01:23:54;16.95;85.11
67759;SHT31;54562;47.620;18.786;2022-09-09T01:27:24;16.93;85.18
67759;SHT31;54562;47.620;18.786;2022-09-09T01:30:33;16.90;85.20
67759;SHT31;54562;47.620;18.786;2022-09-09T01:33:43;16.88;85.30
67759;SHT31;54562;47.620;18.786;2022-09-09T01:36:52;16.88;85.30
67759;SHT31;54562;47.620;18.786;2022-09-09T01:40:08;16.87;85.26
67759;SHT31;54562;47.620;18.786;2022-09-09T01:43:18;16.84;85.29
67759;SHT31;54562;47.620;18.786;2022-09-09T01:46:28;16.83;85.36
67759;SHT31;54562;47.620;18.786;2022-09-09T01:49:36;16.81;85.37
67759;SHT31;54562;47.620;18.786;2022-09-09T01:52:44;16.78;85.42
67759;SHT31;54562;47.620;18.786;2022-09-09T01:56:00;16.77;85.49
67759;SHT31;54562;47.620;18.786;2022-09-09T01:59:27;16.76;85.57
67759;SHT31;54562;47.620;18.786;2022-09-09T02:02:56;16.75;85.65
67759;SHT31;54562;47.620;18.786;2022-09-09T02:06:20;16.73;85.63
67759;SHT31;54562;47.620;18.786;2022-09-09T02:09:36;16.73;85.69
67759;SHT31;54562;47.620;18.786;2022-09-09T02:12:50;16.74;85.66
67759;SHT31;54562;47.620;18.786;2022-09-09T02:16:07;16.75;85.53
67759;SHT31;54562;47.620;18.786;2022-09-09T02:19:23;16.73;85.38
67759;SHT31;54562;47.620;18.786;2022-09-09T02:22:37;16.70;85.32
67759;SHT31;54562;47.620;18.786;2022-09-09T02:25:50;16.67;85.30
67759;SHT31;54562;47.620;18.786;2022-09-09T02:29:03;16.67;85.47
67759;SHT31;54562;47.620;18.786;2022-09-09T02:32:19;16.67;85.44
67759;SHT31;54562;47.620;18.786;2022-09-09T02:35:34;16.66;85.45
67759;SHT31;54562;47.620;18.786;2022-09-09T02:38:45;16.65;85.47
67759;SHT31;54562;47.620;18.786;2022-09-09T02:41:56;16.64;85.47
67759;SHT31;54562;47.620;18.786;2022-09-09T02:45:08;16.64;85.50
67759;SHT31;54562;47.620;18.786;2022-09-09T02:48:23;16.63;85.50
67759;SHT31;54562;47.620;18.786;2022-09-09T02:51:44;16.60;85.57
67759;SHT31;54562;47.620;18.786;2022-09-09T02:55:04;16.58;85.60
67759;SHT31;54562;47.620;18.786;2022-09-09T02:58:22;16.57;85.57
67759;SHT31;54562;47.620;18.786;2022-09-09T03:01:31;16.58;85.50
67759;SHT31;54562;47.620;18.786;2022-09-09T03:04:40;16.56;85.43
67759;SHT31;54562;47.620;18.786;2022-09-09T03:07:54;16.54;85.39
67759;SHT31;54562;47.620;18.786;2022-09-09T03:11:02;16.54;85.35
67759;SHT31;54562;47.620;18.786;2022-09-09T03:14:12;16.52;85.46
67759;SHT31;54562;47.620;18.786;2022-09-09T03:17:27;16.51;85.38
67759;SHT31;54562;47.620;18.786;2022-09-09T03:20:35;16.46;85.47
67759;SHT31;54562;47.620;18.786;2022-09-09T03:23:46;16.41;85.61
67759;SHT31;54562;47.620;18.786;2022-09-09T03:26:55;16.37;85.76
67759;SHT31;54562;47.620;18.786;2022-09-09T03:30:04;16.33;85.84
67759;SHT31;54562;47.620;18.786;2022-09-09T03:33:15;16.33;85.88
67759;SHT31;54562;47.620;18.786;2022-09-09T03:36:26;16.31;85.82
67759;SHT31;54562;47.620;18.786;2022-09-09T03:39:35;16.31;85.77
67759;SHT31;54562;47.620;18.786;2022-09-09T03:42:44;16.30;85.73
67759;SHT31;54562;47.620;18.786;2022-09-09T03:45:52;16.29;85.75
67759;SHT31;54562;47.620;18.786;2022-09-09T03:49:02;16.28;85.80
67759;SHT31;54562;47.620;18.786;2022-09-09T03:52:10;16.29;85.81
67759;SHT31;54562;47.620;18.786;2022-09-09T03:55:25;16.29;85.75
67759;SHT31;54562;47.620;18.786;2022-09-09T03:58:33;16.30;85.79
67759;SHT31;54562;47.620;18.786;2022-09-09T04:01:43;16.30;85.80
67759;SHT31;54562;47.620;18.786;2022-09-09T04:04:51;16.30;85.78
67759;SHT31;54562;47.620;18.786;2022-09-09T04:07:59;16.31;85.80
67759;SHT31;54562;47.620;18.786;2022-09-09T04:11:08;16.33;85.73
67759;SHT31;54562;47.620;18.786;2022-09-09T04:14:17;16.34;85.71
67759;SHT31;54562;47.620;18.786;2022-09-09T04:17:26;16.33;85.59
67759;SHT31;54562;47.620;18.786;2022-09-09T04:20:35;16.33;85.56
67759;SHT31;54562;47.620;18.786;2022-09-09T04:23:43;16.32;85.51
67759;SHT31;54562;47.620;18.786;2022-09-09T04:26:51;16.31;85.54
67759;SHT31;54562;47.620;18.786;2022-09-09T04:30:00;16.30;85.43
67759;SHT31;54562;47.620;18.786;2022-09-09T04:33:10;16.26;85.32
67759;SHT31;54562;47.620;18.786;2022-09-09T04:36:20;16.23;85.20
67759;SHT31;54562;47.620;18.786;2022-09-09T04:39:28;16.23;85.34
67759;SHT31;54562;47.620;18.786;2022-09-09T04:42:37;16.24;85.49
67759;SHT31;54562;47.620;18.786;2022-09-09T04:45:48;16.25;85.47
67759;SHT31;54562;47.620;18.786;2022-09-09T04:48:57;16.26;85.40
67759;SHT31;54562;47.620;18.786;2022-09-09T04:52:06;16.26;85.47
67759;SHT31;54562;47.620;18.786;2022-09-09T04:55:15;16.28;85.53
67759;SHT31;54562;47.620;18.786;2022-09-09T04:58:23;16.30;85.64
67759;SHT31;54562;47.620;18.786;2022-09-09T05:01:32;16.32;85.77
67759;SHT31;54562;47.620;18.786;2022-09-09T05:04:40;16.35;85.88
67759;SHT31;54562;47.620;18.786;2022-09-09T05:07:49;16.38;85.93
67759;SHT31;54562;47.620;18.786;2022-09-09T05:10:57;16.39;86.00
67759;SHT31;54562;47.620;18.786;2022-09-09T05:14:05;16.38;86.06
67759;SHT31;54562;47.620;18.786;2022-09-09T05:17:15;16.40;86.18
67759;SHT31;54562;47.620;18.786;2022-09-09T05:20:24;16.44;86.28
67759;SHT31;54562;47.620;18.786;2022-09-09T05:23:33;16.46;86.29
67759;SHT31;54562;47.620;18.786;2022-09-09T05:26:43;16.46;86.37
67759;SHT31;54562;47.620;18.786;2022-09-09T05:29:52;16.46;86.41
67759;SHT31;54562;47.620;18.786;2022-09-09T05:33:01;16.45;86.44
67759;SHT31;54562;47.620;18.786;2022-09-09T05:36:10;16.46;86.55
67759;SHT31;54562;47.620;18.786;2022-09-09T05:39:20;16.46;86.63
67759;SHT31;54562;47.620;18.786;2022-09-09T05:42:30;16.50;86.78
67759;SHT31;54562;47.620;18.786;2022-09-09T05:45:39;16.53;86.70
67759;SHT31;54562;47.620;18.786;2022-09-09T05:48:49;16.55;86.69
67759;SHT31;54562;47.620;18.786;2022-09-09T05:51:58;16.55;86.69
67759;SHT31;54562;47.620;18.786;2022-09-09T05:55:10;16.56;86.78
67759;SHT31;54562;47.620;18.786;2022-09-09T05:58:19;16.58;86.80
67759;SHT31;54562;47.620;18.786;2022-09-09T06:01:29;16.58;86.81
67759;SHT31;54562;47.620;18.786;2022-09-09T06:04:44;16.58;86.89
67759;SHT31;54562;47.620;18.786;2022-09-09T06:07:53;16.57;87.02
67759;SHT31;54562;47.620;18.786;2022-09-09T06:11:04;16.59;87.16
67759;SHT31;54562;47.620;18.786;2022-09-09T06:14:18;16.63;87.22
67759;SHT31;54562;47.620;18.786;2022-09-09T06:17:28;16.64;87.17
67759;SHT31;54562;47.620;18.786;2022-09-09T06:20:36;16.63;87.18
67759;SHT31;54562;47.620;18.786;2022-09-09T06:23:45;16.62;87.18
67759;SHT31;54562;47.620;18.786;2022-09-09T06:26:55;16.64;87.34
67759;SHT31;54562;47.620;18.786;2022-09-09T06:30:04;16.68;87.43
67759;SHT31;54562;47.620;18.786;2022-09-09T06:33:15;16.73;87.41
67759;SHT31;54562;47.620;18.786;2022-09-09T06:36:24;16.77;87.40
67759;SHT31;54562;47.620;18.786;2022-09-09T06:39:34;16.84;87.43
67759;SHT31;54562;47.620;18.786;2022-09-09T06:42:42;16.87;87.40
67759;SHT31;54562;47.620;18.786;2022-09-09T06:45:54;16.88;87.34
67759;SHT31;54562;47.620;18.786;2022-09-09T06:49:07;16.91;87.35
67759;SHT31;54562;47.620;18.786;2022-09-09T06:52:17;16.92;87.33
67759;SHT31;54562;47.620;18.786;2022-09-09T06:55:30;16.97;87.34
67759;SHT31;54562;47.620;18.786;2022-09-09T06:58:40;17.05;87.29
67759;SHT31;54562;47.620;18.786;2022-09-09T07:01:48;17.13;87.34
67759;SHT31;54562;47.620;18.786;2022-09-09T07:04:58;17.25;87.50
67759;SHT31;54562;47.620;18.786;2022-09-09T07:08:04;17.32;87.44
67759;SHT31;54562;47.620;18.786;2022-09-09T07:11:12;17.41;87.36
67759;SHT31;54562;47.620;18.786;2022-09-09T07:14:21;17.56;87.57
67759;SHT31;54562;47.620;18.786;2022-09-09T07:17:30;17.66;87.51
67759;SHT31;54562;47.620;18.786;2022-09-09T07:20:38;17.72;87.29
67759;SHT31;54562;47.620;18.786;2022-09-09T07:23:46;17.83;87.29
67759;SHT31;54562;47.620;18.786;2022-09-09T07:26:54;18.01;87.52
67759;SHT31;54562;47.620;18.786;2022-09-09T07:30:03;18.29;87.74
67759;SHT31;54562;47.620;18.786;2022-09-09T07:33:22;18.57;87.29
67759;SHT31;54562;47.620;18.786;2022-09-09T07:36:31;18.84;87.13
67759;SHT31;54562;47.620;18.786;2022-09-09T07:39:41;19.07;86.79
67759;SHT31;54562;47.620;18.786;2022-09-09T07:42:49;19.21;86.20
67759;SHT31;54562;47.620;18.786;2022-09-09T07:45:58;19.35;85.92
67759;SHT31;54562;47.620;18.786;2022-09-09T07:49:07;19.52;85.27
67759;SHT31;54562;47.620;18.786;2022-09-09T07:52:17;19.68;84.72
67759;SHT31;54562;47.620;18.786;2022-09-09T07:55:28;19.84;84.44
67759;SHT31;54562;47.620;18.786;2022-09-09T07:58:36;19.97;83.98
67759;SHT31;54562;47.620;18.786;2022-09-09T08:01:46;20.09;83.35
67759;SHT31;54562;47.620;18.786;2022-09-09T08:04:56;20.21;82.83
67759;SHT31;54562;47.620;18.786;2022-09-09T08:08:05;20.29;82.37
67759;SHT31;54562;47.620;18.786;2022-09-09T08:11:14;20.40;82.05
67759;SHT31;54562;47.620;18.786;2022-09-09T08:14:23;20.53;81.65
67759;SHT31;54562;47.620;18.786;2022-09-09T08:17:31;20.64;81.13
67759;SHT31;54562;47.620;18.786;2022-09-09T08:20:41;20.79;80.82
67759;SHT31;54562;47.620;18.786;2022-09-09T08:23:49;20.93;80.56
67759;SHT31;54562;47.620;18.786;2022-09-09T08:27:00;21.10;80.29
67759;SHT31;54562;47.620;18.786;2022-09-09T08:30:09;21.25;79.89
67759;SHT31;54562;47.620;18.786;2022-09-09T08:33:18;21.37;79.43
67759;SHT31;54562;47.620;18.786;2022-09-09T08:36:27;21.48;78.45
67759;SHT31;54562;47.620;18.786;2022-09-09T08:39:37;21.61;78.70
67759;SHT31;54562;47.620;18.786;2022-09-09T08:42:45;21.73;78.11
67759;SHT31;54562;47.620;18.786;2022-09-09T08:46:00;21.87;78.12
67759;SHT31;54562;47.620;18.786;2022-09-09T08:49:21;22.01;77.59
67759;SHT31;54562;47.620;18.786;2022-09-09T08:52:55;22.12;77.38
67759;SHT31;54562;47.620;18.786;2022-09-09T08:56:10;22.22;77.31
67759;SHT31;54562;47.620;18.786;2022-09-09T08:59:23;22.33;76.99
67759;SHT31;54562;47.620;18.786;2022-09-09T09:02:32;22.43;76.42
67759;SHT31;54562;47.620;18.786;2022-09-09T09:05:54;22.55;76.13
67759;SHT31;54562;47.620;18.786;2022-09-09T09:09:14;22.67;75.58
67759;SHT31;54562;47.620;18.786;2022-09-09T09:12:35;22.79;74.85
67759;SHT31;54562;47.620;18.786;2022-09-09T09:15:48;22.91;74.07
67759;SHT31;54562;47.620;18.786;2022-09-09T09:19:02;23.03;73.91
67759;SHT31;54562;47.620;18.786;2022-09-09T09:22:16;23.18;73.62
67759;SHT31;54562;47.620;18.786;2022-09-09T09:25:33;23.33;73.47
67759;SHT31;54562;47.620;18.786;2022-09-09T09:28:46;23.50;73.52
67759;SHT31;54562;47.620;18.786;2022-09-09T09:31:55;23.65;73.19
67759;SHT31;54562;47.620;18.786;2022-09-09T09:35:11;23.75;72.28
67759;SHT31;54562;47.620;18.786;2022-09-09T09:38:21;23.82;71.86
67759;SHT31;54562;47.620;18.786;2022-09-09T09:41:51;23.98;71.59
67759;SHT31;54562;47.620;18.786;2022-09-09T09:45:08;24.09;70.81
67759;SHT31;54562;47.620;18.786;2022-09-09T09:48:22;24.19;69.79
67759;SHT31;54562;47.620;18.786;2022-09-09T09:51:32;24.33;69.63
67759;SHT31;54562;47.620;18.786;2022-09-09T09:54:41;24.40;68.50
67759;SHT31;54562;47.620;18.786;2022-09-09T09:57:48;24.42;67.99
67759;SHT31;54562;47.620;18.786;2022-09-09T10:00:57;24.53;68.28
67759;SHT31;54562;47.620;18.786;2022-09-09T10:04:14;24.67;67.53
67759;SHT31;54562;47.620;18.786;2022-09-09T10:07:26;24.78;66.35
67759;SHT31;54562;47.620;18.786;2022-09-09T10:10:49;24.80;66.31
67759;SHT31;54562;47.620;18.786;2022-09-09T10:14:12;24.85;66.08
67759;SHT31;54562;47.620;18.786;2022-09-09T10:17:32;24.83;64.92
67759;SHT31;54562;47.620;18.786;2022-09-09T10:20:50;24.75;64.59
67759;SHT31;54562;47.620;18.786;2022-09-09T10:24:18;24.97;65.62
67759;SHT31;54562;47.620;18.786;2022-09-09T10:28:06;25.15;64.35
67759;SHT31;54562;47.620;18.786;2022-09-09T10:31:43;25.15;64.54
67759;SHT31;54562;47.620;18.786;2022-09-09T10:35:04;25.12;63.96
67759;SHT31;54562;47.620;18.786;2022-09-09T10:38:28;25.02;62.80
67759;SHT31;54562;47.620;18.786;2022-09-09T10:41:48;24.93;62.47
67759;SHT31;54562;47.620;18.786;2022-09-09T10:45:10;24.88;61.84
67759;SHT31;54562;47.620;18.786;2022-09-09T10:48:40;24.83;61.44
67759;SHT31;54562;47.620;18.786;2022-09-09T10:52:10;24.76;61.34
67759;SHT31;54562;47.620;18.786;2022-09-09T10:55:31;24.70;61.20
67759;SHT31;54562;47.620;18.786;2022-09-09T10:58:46;24.62;60.80
67759;SHT31;54562;47.620;18.786;2022-09-09T11:02:03;24.57;60.77
67759;SHT31;54562;47.620;18.786;2022-09-09T11:05:24;24.50;60.78
67759;SHT31;54562;47.620;18.786;2022-09-09T11:08:42;24.45;59.91
67759;SHT31;54562;47.620;18.786;2022-09-09T11:11:51;24.38;59.22
67759;SHT31;54562;47.620;18.786;2022-09-09T11:15:04;24.34;59.13
67759;SHT31;54562;47.620;18.786;2022-09-09T11:18:22;24.35;59.69
67759;SHT31;54562;47.620;18.786;2022-09-09T11:21:43;24.38;59.80
67759;SHT31;54562;47.620;18.786;2022-09-09T11:24:56;24.34;59.85
67759;SHT31;54562;47.620;18.786;2022-09-09T11:31:58;24.34;58.18
67759;SHT31;54562;47.620;18.786;2022-09-09T11:35:33;24.33;58.01
67759;SHT31;54562;47.620;18.786;2022-09-09T11:38:58;24.37;58.83
67759;SHT31;54562;47.620;18.786;2022-09-09T11:42:26;24.58;57.76
67759;SHT31;54562;47.620;18.786;2022-09-09T11:45:34;24.99;57.28
67759;SHT31;54562;47.620;18.786;2022-09-09T11:48:45;25.63;56.17
67759;SHT31;54562;47.620;18.786;2022-09-09T11:52:11;25.91;55.52
67759;SHT31;54562;47.620;18.786;2022-09-09T11:55:30;26.08;55.08
67759;SHT31;54562;47.620;18.786;2022-09-09T11:58:42;26.36;54.34
67759;SHT31;54562;47.620;18.786;2022-09-09T12:02:02;26.80;54.54
67759;SHT31;54562;47.620;18.786;2022-09-09T12:05:23;27.27;52.71
67759;SHT31;54562;47.620;18.786;2022-09-09T12:08:45;27.48;52.71
67759;SHT31;54562;47.620;18.786;2022-09-09T12:12:17;27.25;51.96
67759;SHT31;54562;47.620;18.786;2022-09-09T12:15:31;27.20;51.65
67759;SHT31;54562;47.620;18.786;2022-09-09T12:18:51;27.41;50.76
67759;SHT31;54562;47.620;18.786;2022-09-09T12:22:11;27.52;50.51
67759;SHT31;54562;47.620;18.786;2022-09-09T12:25:41;27.60;49.57
67759;SHT31;54562;47.620;18.786;2022-09-09T12:29:12;27.80;49.11
67759;SHT31;54562;47.620;18.786;2022-09-09T12:32:36;28.06;48.72
67759;SHT31;54562;47.620;18.786;2022-09-09T12:35:44;28.10;48.08
67759;SHT31;54562;47.620;18.786;2022-09-09T12:39:09;28.01;47.75
67759;SHT31;54562;47.620;18.786;2022-09-09T12:42:27;27.75;47.57
67759;SHT31;54562;47.620;18.786;2022-09-09T12:45:43;27.55;47.22
67759;SHT31;54562;47.620;18.786;2022-09-09T12:48:53;27.46;47.26
67759;SHT31;54562;47.620;18.786;2022-09-09T12:52:03;27.50;47.10
67759;SHT31;54562;47.620;18.786;2022-09-09T12:55:24;27.26;47.49
67759;SHT31;54562;47.620;18.786;2022-09-09T12:58:37;27.06;47.38
67759;SHT31;54562;47.620;18.786;2022-09-09T13:01:58;27.12;47.05
67759;SHT31;54562;47.620;18.786;2022-09-09T13:05:18;27.33;46.63
67759;SHT31;54562;47.620;18.786;2022-09-09T13:08:29;27.52;47.58
67759;SHT31;54562;47.620;18.786;2022-09-09T13:11:39;27.77;46.28
67759;SHT31;54562;47.620;18.786;2022-09-09T13:14:52;27.86;45.63
67759;SHT31;54562;47.620;18.786;2022-09-09T13:18:03;27.82;45.90
67759;SHT31;54562;47.620;18.786;2022-09-09T13:21:32;27.54;45.52
67759;SHT31;54562;47.620;18.786;2022-09-09T13:24:42;27.18;45.76
67759;SHT31;54562;47.620;18.786;2022-09-09T13:27:56;27.01;46.00
67759;SHT31;54562;47.620;18.786;2022-09-09T13:31:19;26.89;46.23
67759;SHT31;54562;47.620;18.786;2022-09-09T13:34:33;26.75;46.22
67759;SHT31;54562;47.620;18.786;2022-09-09T13:37:41;26.62;46.87
67759;SHT31;54562;47.620;18.786;2022-09-09T13:40:54;26.49;47.58
67759;SHT31;54562;47.620;18.786;2022-09-09T13:44:06;26.48;48.01
67759;SHT31;54562;47.620;18.786;2022-09-09T13:47:29;26.59;47.73
67759;SHT31;54562;47.620;18.786;2022-09-09T13:50:40;26.63;47.10
67759;SHT31;54562;47.620;18.786;2022-09-09T13:53:58;26.49;46.41
67759;SHT31;54562;47.620;18.786;2022-09-09T13:57:11;26.42;46.49
67759;SHT31;54562;47.620;18.786;2022-09-09T14:00:24;26.68;47.17
67759;SHT31;54562;47.620;18.786;2022-09-09T14:03:33;27.05;46.75
67759;SHT31;54562;47.620;18.786;2022-09-09T14:06:41;27.39;45.50
67759;SHT31;54562;47.620;18.786;2022-09-09T14:09:49;27.35;44.88
67759;SHT31;54562;47.620;18.786;2022-09-09T14:12:58;27.21;44.81
67759;SHT31;54562;47.620;18.786;2022-09-09T14:16:06;26.99;45.12
67759;SHT31;54562;47.620;18.786;2022-09-09T14:19:14;26.76;45.08
67759;SHT31;54562;47.620;18.786;2022-09-09T14:22:22;26.64;45.82
67759;SHT31;54562;47.620;18.786;2022-09-09T14:25:31;26.52;46.72
67759;SHT31;54562;47.620;18.786;2022-09-09T14:28:39;26.37;47.07
67759;SHT31;54562;47.620;18.786;2022-09-09T14:32:04;26.18;47.42
67759;SHT31;54562;47.620;18.786;2022-09-09T14:35:15;26.02;47.92
67759;SHT31;54562;47.620;18.786;2022-09-09T14:38:23;25.95;49.10
67759;SHT31;54562;47.620;18.786;2022-09-09T14:41:35;25.95;49.35
67759;SHT31;54562;47.620;18.786;2022-09-09T14:44:43;25.91;49.04
67759;SHT31;54562;47.620;18.786;2022-09-09T14:47:51;25.83;49.11
67759;SHT31;54562;47.620;18.786;2022-09-09T14:51:05;25.74;48.73
67759;SHT31;54562;47.620;18.786;2022-09-09T14:54:16;25.70;48.84
67759;SHT31;54562;47.620;18.786;2022-09-09T14:57:24;25.74;49.41
67759;SHT31;54562;47.620;18.786;2022-09-09T15:00:33;25.76;48.34
67759;SHT31;54562;47.620;18.786;2022-09-09T15:03:42;25.71;48.34
67759;SHT31;54562;47.620;18.786;2022-09-09T15:06:58;25.66;47.71
67759;SHT31;54562;47.620;18.786;2022-09-09T15:10:06;25.64;48.21
67759;SHT31;54562;47.620;18.786;2022-09-09T15:13:15;25.59;48.83
67759;SHT31;54562;47.620;18.786;2022-09-09T15:16:25;25.52;49.33
67759;SHT31;54562;47.620;18.786;2022-09-09T15:19:35;25.46;49.47
67759;SHT31;54562;47.620;18.786;2022-09-09T15:22:45;25.40;50.25
67759;SHT31;54562;47.620;18.786;2022-09-09T15:25:54;25.35;49.76
67759;SHT31;54562;47.620;18.786;2022-09-09T15:29:03;25.31;50.47
67759;SHT31;54562;47.620;18.786;2022-09-09T15:32:12;25.22;51.26
67759;SHT31;54562;47.620;18.786;2022-09-09T15:35:20;25.14;51.35
67759;SHT31;54562;47.620;18.786;2022-09-09T15:38:30;25.04;51.03
67759;SHT31;54562;47.620;18.786;2022-09-09T15:41:39;24.94;50.50
67759;SHT31;54562;47.620;18.786;2022-09-09T15:44:48;24.84;51.08
67759;SHT31;54562;47.620;18.786;2022-09-09T15:47:56;24.75;51.24
67759;SHT31;54562;47.620;18.786;2022-09-09T15:51:04;24.64;51.41
67759;SHT31;54562;47.620;18.786;2022-09-09T15:54:35;24.52;52.92
67759;SHT31;54562;47.620;18.786;2022-09-09T15:57:47;24.40;53.88
67759;SHT31;54562;47.620;18.786;2022-09-09T16:00:56;24.28;54.24
67759;SHT31;54562;47.620;18.786;2022-09-09T16:04:10;24.17;54.75
67759;SHT31;54562;47.620;18.786;2022-09-09T16:07:26;24.08;55.04
67759;SHT31;54562;47.620;18.786;2022-09-09T16:10:34;24.04;54.63
67759;SHT31;54562;47.620;18.786;2022-09-09T16:13:42;23.99;54.48
67759;SHT31;54562;47.620;18.786;2022-09-09T16:16:53;23.96;55.01
67759;SHT31;54562;47.620;18.786;2022-09-09T16:20:01;23.89;55.58
67759;SHT31;54562;47.620;18.786;2022-09-09T16:23:12;23.83;55.70
67759;SHT31;54562;47.620;18.786;2022-09-09T16:26:20;23.77;56.17
67759;SHT31;54562;47.620;18.786;2022-09-09T16:29:29;23.72;56.73
67759;SHT31;54562;47.620;18.786;2022-09-09T16:32:37;23.66;57.91
67759;SHT31;54562;47.620;18.786;2022-09-09T16:35:45;23.59;57.19
67759;SHT31;54562;47.620;18.786;2022-09-09T16:38:55;23.51;58.05
67759;SHT31;54562;47.620;18.786;2022-09-09T16:42:06;23.43;58.94
67759;SHT31;54562;47.620;18.786;2022-09-09T16:45:18;23.36;59.82
67759;SHT31;54562;47.620;18.786;2022-09-09T16:48:27;23.30;59.60
67759;SHT31;54562;47.620;18.786;2022-09-09T16:51:39;23.22;60.20
67759;SHT31;54562;47.620;18.786;2022-09-09T16:54:50;23.14;61.47
67759;SHT31;54562;47.620;18.786;2022-09-09T16:57:58;23.06;62.03
67759;SHT31;54562;47.620;18.786;2022-09-09T17:01:06;22.99;61.97
67759;SHT31;54562;47.620;18.786;2022-09-09T17:04:18;22.93;62.26
67759;SHT31;54562;47.620;18.786;2022-09-09T17:07:29;22.85;62.91
67759;SHT31;54562;47.620;18.786;2022-09-09T17:10:42;22.77;63.79
67759;SHT31;54562;47.620;18.786;2022-09-09T17:13:52;22.68;64.88
67759;SHT31;54562;47.620;18.786;2022-09-09T17:17:03;22.58;65.13
67759;SHT31;54562;47.620;18.786;2022-09-09T17:20:34;22.50;65.53
67759;SHT31;54562;47.620;18.786;2022-09-09T17:23:49;22.41;65.82
67759;SHT31;54562;47.620;18.786;2022-09-09T17:26:58;22.36;65.88
67759;SHT31;54562;47.620;18.786;2022-09-09T17:30:07;22.29;65.58
67759;SHT31;54562;47.620;18.786;2022-09-09T17:33:18;22.20;65.28
67759;SHT31;54562;47.620;18.786;2022-09-09T17:36:27;22.14;64.84
67759;SHT31;54562;47.620;18.786;2022-09-09T17:39:39;22.08;65.03
67759;SHT31;54562;47.620;18.786;2022-09-09T17:42:48;22.02;64.88
67759;SHT31;54562;47.620;18.786;2022-09-09T17:45:56;21.96;65.38
67759;SHT31;54562;47.620;18.786;2022-09-09T17:49:15;21.89;65.65
67759;SHT31;54562;47.620;18.786;2022-09-09T17:52:24;21.84;65.82
67759;SHT31;54562;47.620;18.786;2022-09-09T17:55:34;21.79;65.58
67759;SHT31;54562;47.620;18.786;2022-09-09T17:58:42;21.75;65.03
67759;SHT31;54562;47.620;18.786;2022-09-09T18:01:51;21.72;64.53
67759;SHT31;54562;47.620;18.786;2022-09-09T18:05:00;21.68;64.35
67759;SHT31;54562;47.620;18.786;2022-09-09T18:08:08;21.66;63.97
67759;SHT31;54562;47.620;18.786;2022-09-09T18:11:16;21.62;64.28
67759;SHT31;54562;47.620;18.786;2022-09-09T18:14:29;21.56;64.28
67759;SHT31;54562;47.620;18.786;2022-09-09T18:17:39;21.52;63.99
67759;SHT31;54562;47.620;18.786;2022-09-09T18:20:47;21.47;64.19
67759;SHT31;54562;47.620;18.786;2022-09-09T18:24:06;21.41;63.64
67759;SHT31;54562;47.620;18.786;2022-09-09T18:27:16;21.36;64.08
67759;SHT31;54562;47.620;18.786;2022-09-09T18:30:25;21.30;65.56
67759;SHT31;54562;47.620;18.786;2022-09-09T18:33:35;21.22;65.98
67759;SHT31;54562;47.620;18.786;2022-09-09T18:36:46;21.15;65.85
67759;SHT31;54562;47.620;18.786;2022-09-09T18:39:58;21.12;65.26
67759;SHT31;54562;47.620;18.786;2022-09-09T18:43:07;21.10;65.15
67759;SHT31;54562;47.620;18.786;2022-09-09T18:46:15;21.05;65.30
67759;SHT31;54562;47.620;18.786;2022-09-09T18:49:25;20.99;65.16
67759;SHT31;54562;47.620;18.786;2022-09-09T18:52:33;20.95;64.56
67759;SHT31;54562;47.620;18.786;2022-09-09T18:55:41;20.93;65.04
67759;SHT31;54562;47.620;18.786;2022-09-09T18:58:51;20.90;65.13
67759;SHT31;54562;47.620;18.786;2022-09-09T19:02:01;20.90;65.97
67759;SHT31;54562;47.620;18.786;2022-09-09T19:05:09;20.86;66.31
67759;SHT31;54562;47.620;18.786;2022-09-09T19:08:17;20.82;66.68
67759;SHT31;54562;47.620;18.786;2022-09-09T19:11:27;20.78;67.76
67759;SHT31;54562;47.620;18.786;2022-09-09T19:14:37;20.74;68.16
67759;SHT31;54562;47.620;18.786;2022-09-09T19:17:46;20.70;68.04
67759;SHT31;54562;47.620;18.786;2022-09-09T19:20:55;20.67;68.25
67759;SHT31;54562;47.620;18.786;2022-09-09T19:24:17;20.63;67.02
67759;SHT31;54562;47.620;18.786;2022-09-09T19:27:27;20.60;67.02
67759;SHT31;54562;47.620;18.786;2022-09-09T19:30:35;20.58;67.88
67759;SHT31;54562;47.620;18.786;2022-09-09T19:33:47;20.53;68.40
67759;SHT31;54562;47.620;18.786;2022-09-09T19:36:58;20.50;68.63
67759;SHT31;54562;47.620;18.786;2022-09-09T19:40:06;20.48;68.59
67759;SHT31;54562;47.620;18.786;2022-09-09T19:43:16;20.45;68.93
67759;SHT31;54562;47.620;18.786;2022-09-09T19:46:25;20.43;69.19
67759;SHT31;54562;47.620;18.786;2022-09-09T19:49:36;20.40;69.60
67759;SHT31;54562;47.620;18.786;2022-09-09T19:52:51;20.36;68.82
67759;SHT31;54562;47.620;18.786;2022-09-09T19:56:00;20.35;69.36
67759;SHT31;54562;47.620;18.786;2022-09-09T19:59:10;20.32;70.72
67759;SHT31;54562;47.620;18.786;2022-09-09T20:02:19;20.28;70.64
67759;SHT31;54562;47.620;18.786;2022-09-09T20:05:25;20.20;70.82